Time;durP1;ratioP1;P1;durP2;ratioP2;P2;SDS_P1;SDS_P2;PMS_P1;PMS_P2;Temp;Humidity;BMP_temperature;BMP_pressure;BME280_temperature;BME280_humidity;BME280_pressure;Samples;Min_cycle;Max_cycle;Signal;HPM_P1;HPM_P2
2023/05/25 00:01:42;;;;;;;17.55;6.38;;;;;;;;;;5090428;28;20020;-68
2023/05/25 00:04:09;;;;;;;10.77;5.45;;;;;;;;;;5095029;28;20418;-64
2023/05/25 00:06:36;;;;;;;14.05;5.35;;;;;;;;;;5112240;28;20040;-67
2023/05/25 00:09:02;;;;;;;14.05;4.90;;;;;;;;;;5111915;28;20032;-73
2023/05/25 00:11:27;;;;;;;11.40;5.22;;;;;;;;;;5110830;28;20392;-67
2023/05/25 00:13:53;;;;;;;15.18;5.60;;;;;;;;;;5112043;28;20027;-69
2023/05/25 00:16:18;;;;;;;15.75;5.85;;;;;;;;;;5112310;28;20028;-64
2023/05/25 00:18:44;;;;;;;12.70;5.47;;;;;;;;;;5112289;28;20024;-66
2023/05/25 00:21:10;;;;;;;18.90;5.15;;;;;;;;;;5112118;28;20465;-66
2023/05/25 00:23:36;;;;;;;12.75;5.30;;;;;;;;;;5112225;28;20024;-67
2023/05/25 00:26:02;;;;;;;16.90;4.97;;;;;;;;;;5110431;28;20030;-70
2023/05/25 00:28:28;;;;;;;11.10;4.63;;;;;;;;;;5112050;28;20031;-66
2023/05/25 00:30:54;;;;;;;13.07;5.10;;;;;;;;;;5111935;28;20397;-65
2023/05/25 00:33:20;;;;;;;14.00;4.57;;;;;;;;;;5111045;28;20080;-65
2023/05/25 00:35:45;;;;;;;15.98;4.68;;;;;;;;;;5106945;27;20077;-65
2023/05/25 00:38:18;;;;;;;12.52;4.68;;;;;;;;;;5097754;28;20111;-64
2023/05/25 00:40:44;;;;;;;15.00;4.55;;;;;;;;;;5100686;28;20036;-66
2023/05/25 00:43:11;;;;;;;11.32;4.80;;;;;;;;;;5095230;28;20020;-65
2023/05/25 00:45:37;;;;;;;11.82;4.72;;;;;;;;;;5094930;28;20043;-65
2023/05/25 00:48:03;;;;;;;12.63;4.47;;;;;;;;;;5095050;28;20032;-64
2023/05/25 00:50:40;;;;;;;12.73;4.40;;;;;;;;;;5095235;28;20032;-68
2023/05/25 00:53:07;;;;;;;11.73;4.22;;;;;;;;;;5095024;28;20020;-69
2023/05/25 00:55:39;;;;;;;13.93;5.20;;;;;;;;;;5094787;28;20027;-68
2023/05/25 00:58:07;;;;;;;10.75;4.45;;;;;;;;;;5094899;28;20032;-66
2023/05/25 01:00:34;;;;;;;12.50;4.22;;;;;;;;;;5094754;28;20060;-67
2023/05/25 01:03:06;;;;;;;15.13;4.85;;;;;;;;;;5094953;28;20020;-65
2023/05/25 01:05:33;;;;;;;13.50;5.30;;;;;;;;;;5106142;28;20106;-67
2023/05/25 01:08:02;;;;;;;12.23;4.70;;;;;;;;;;5114858;28;20024;-64
2023/05/25 01:10:32;;;;;;;13.10;4.93;;;;;;;;;;5114746;28;20027;-65
2023/05/25 01:13:00;;;;;;;10.98;4.38;;;;;;;;;;5115038;28;20477;-65
2023/05/25 01:15:28;;;;;;;9.98;4.55;;;;;;;;;;5114830;28;20040;-65
2023/05/25 01:17:58;;;;;;;14.63;4.72;;;;;;;;;;5114958;27;20469;-65
2023/05/25 01:20:26;;;;;;;15.00;4.53;;;;;;;;;;5114719;28;20035;-71
2023/05/25 01:23:13;;;;;;;10.68;4.95;;;;;;;;;;5114538;28;20036;-64
2023/05/25 01:25:46;;;;;;;14.02;4.32;;;;;;;;;;5114385;28;20024;-65
2023/05/25 01:28:27;;;;;;;12.18;4.63;;;;;;;;;;5114839;28;20023;-64
2023/05/25 01:30:55;;;;;;;13.02;4.35;;;;;;;;;;5114501;28;20473;-66
2023/05/25 01:33:21;;;;;;;11.98;4.80;;;;;;;;;;5114745;28;20036;-64
2023/05/25 01:35:47;;;;;;;10.90;4.65;;;;;;;;;;5097172;28;20108;-65
2023/05/25 01:38:13;;;;;;;10.80;4.65;;;;;;;;;;5095052;28;20035;-65
2023/05/25 01:40:39;;;;;;;13.07;4.90;;;;;;;;;;5101354;28;20028;-64
2023/05/25 01:43:04;;;;;;;13.23;5.15;;;;;;;;;;5094006;28;20024;-68
2023/05/25 01:45:31;;;;;;;11.02;4.78;;;;;;;;;;5093128;28;20201;-64
2023/05/25 01:48:21;;;;;;;8.90;4.38;;;;;;;;;;5093873;28;20028;-65
2023/05/25 01:50:56;;;;;;;9.93;4.32;;;;;;;;;;5093990;28;20342;-67
2023/05/25 01:53:27;;;;;;;11.68;5.13;;;;;;;;;;5093764;28;20556;-65
2023/05/25 01:55:56;;;;;;;8.50;4.55;;;;;;;;;;5093680;28;20465;-68
2023/05/25 01:58:23;;;;;;;12.32;4.68;;;;;;;;;;5093695;28;20032;-64
2023/05/25 02:00:50;;;;;;;14.45;4.68;;;;;;;;;;5093747;28;20469;-65
2023/05/25 02:03:17;;;;;;;12.77;4.57;;;;;;;;;;5093615;28;20028;-65
2023/05/25 02:05:42;;;;;;;10.30;4.20;;;;;;;;;;5101652;28;20020;-65
2023/05/25 02:08:08;;;;;;;10.40;4.55;;;;;;;;;;5113841;28;20381;-64
2023/05/25 02:10:33;;;;;;;9.45;4.25;;;;;;;;;;5113625;28;20423;-68
2023/05/25 02:12:59;;;;;;;10.77;4.45;;;;;;;;;;5113911;28;20026;-67
2023/05/25 02:15:24;;;;;;;11.68;4.78;;;;;;;;;;5106409;28;20107;-65
2023/05/25 02:17:50;;;;;;;11.55;4.60;;;;;;;;;;5093320;28;20106;-65
2023/05/25 02:20:15;;;;;;;11.57;5.03;;;;;;;;;;5093349;28;20020;-66
2023/05/25 02:22:41;;;;;;;12.13;4.90;;;;;;;;;;5093050;28;20036;-65
2023/05/25 02:25:07;;;;;;;13.32;5.00;;;;;;;;;;5093318;28;20473;-64
2023/05/25 02:27:34;;;;;;;13.00;4.63;;;;;;;;;;5093166;28;20036;-66
2023/05/25 02:30:00;;;;;;;12.48;4.68;;;;;;;;;;5093124;28;20028;-69
2023/05/25 02:32:28;;;;;;;11.38;4.70;;;;;;;;;;5093097;28;20111;-72
2023/05/25 02:34:53;;;;;;;15.20;4.63;;;;;;;;;;5093543;28;20036;-70
2023/05/25 02:37:20;;;;;;;10.43;4.38;;;;;;;;;;5101793;28;20028;-71
2023/05/25 02:39:45;;;;;;;9.70;4.55;;;;;;;;;;5106856;28;20507;-71
2023/05/25 02:42:11;;;;;;;12.77;4.22;;;;;;;;;;5093322;27;20040;-71
2023/05/25 02:44:36;;;;;;;14.95;4.88;;;;;;;;;;5092817;28;20378;-69
2023/05/25 02:47:01;;;;;;;14.07;4.43;;;;;;;;;;5092856;28;20098;-70
2023/05/25 02:49:28;;;;;;;14.73;5.05;;;;;;;;;;5092639;28;20024;-65
2023/05/25 02:51:54;;;;;;;9.70;4.10;;;;;;;;;;5092754;28;20043;-69
2023/05/25 02:54:20;;;;;;;11.35;4.45;;;;;;;;;;5092781;28;20077;-72
2023/05/25 02:56:45;;;;;;;9.35;4.28;;;;;;;;;;5092464;28;20024;-72
2023/05/25 02:59:11;;;;;;;14.35;7.10;;;;;;;;;;5092534;28;20024;-72
2023/05/25 03:01:36;;;;;;;11.00;4.32;;;;;;;;;;5092613;28;20028;-69
2023/05/25 03:04:02;;;;;;;8.60;3.90;;;;;;;;;;5092334;28;20062;-71
2023/05/25 03:06:27;;;;;;;9.75;4.22;;;;;;;;;;5092535;28;20103;-71
2023/05/25 03:08:53;;;;;;;13.40;4.38;;;;;;;;;;5092386;28;20348;-69
2023/05/25 03:11:18;;;;;;;12.38;4.40;;;;;;;;;;5092567;28;20032;-68
2023/05/25 03:13:43;;;;;;;10.27;4.35;;;;;;;;;;5092446;28;20047;-70
2023/05/25 03:16:09;;;;;;;11.05;4.63;;;;;;;;;;5092556;28;20024;-71
2023/05/25 03:18:35;;;;;;;10.27;5.13;;;;;;;;;;5091936;28;20126;-70
2023/05/25 03:21:00;;;;;;;12.07;4.75;;;;;;;;;;5092537;28;20024;-66
2023/05/25 03:23:26;;;;;;;19.05;5.75;;;;;;;;;;5092401;28;20130;-65
2023/05/25 03:25:51;;;;;;;15.23;4.95;;;;;;;;;;5092237;28;20028;-64
2023/05/25 03:28:17;;;;;;;16.35;5.20;;;;;;;;;;5091995;28;20039;-65
2023/05/25 03:30:42;;;;;;;15.07;5.07;;;;;;;;;;5092089;28;20032;-65
2023/05/25 03:33:08;;;;;;;16.50;5.15;;;;;;;;;;5092065;28;20439;-66
2023/05/25 03:35:33;;;;;;;14.48;4.65;;;;;;;;;;5095108;28;20440;-64
2023/05/25 03:37:58;;;;;;;16.55;5.20;;;;;;;;;;5095303;28;20036;-71
2023/05/25 03:40:24;;;;;;;10.02;4.35;;;;;;;;;;5110053;28;20024;-71
2023/05/25 03:42:49;;;;;;;10.80;4.50;;;;;;;;;;5092095;28;20028;-64
2023/05/25 03:45:15;;;;;;;11.65;4.78;;;;;;;;;;5090722;28;20052;-66
2023/05/25 03:47:41;;;;;;;13.85;4.55;;;;;;;;;;5091802;28;20039;-64
2023/05/25 03:50:07;;;;;;;14.32;5.63;;;;;;;;;;5092183;28;20024;-65
2023/05/25 03:52:32;;;;;;;10.45;5.03;;;;;;;;;;5090802;28;20028;-65
2023/05/25 03:55:00;;;;;;;18.08;5.65;;;;;;;;;;5093973;28;20081;-69
2023/05/25 03:57:26;;;;;;;11.52;5.13;;;;;;;;;;5097331;28;20109;-65
2023/05/25 03:59:51;;;;;;;13.95;5.15;;;;;;;;;;5091896;28;20060;-65
2023/05/25 04:02:16;;;;;;;17.33;5.75;;;;;;;;;;5091713;28;20090;-65
2023/05/25 04:04:42;;;;;;;13.75;5.50;;;;;;;;;;5092013;28;20032;-64
2023/05/25 04:07:08;;;;;;;11.60;5.05;;;;;;;;;;5106575;28;20028;-64
2023/05/25 04:09:33;;;;;;;12.98;5.13;;;;;;;;;;5094352;28;20040;-64
2023/05/25 04:11:58;;;;;;;11.93;5.50;;;;;;;;;;5109021;28;20032;-65
2023/05/25 04:14:24;;;;;;;14.23;5.63;;;;;;;;;;5116199;28;20037;-64
2023/05/25 04:16:50;;;;;;;11.88;5.25;;;;;;;;;;5115519;28;20046;-65
2023/05/25 04:19:16;;;;;;;13.13;5.80;;;;;;;;;;5115964;27;20469;-64
2023/05/25 04:21:41;;;;;;;9.93;5.18;;;;;;;;;;5115758;28;20030;-65
2023/05/25 04:24:07;;;;;;;15.30;5.43;;;;;;;;;;5116013;28;20381;-66
2023/05/25 04:26:32;;;;;;;12.05;4.97;;;;;;;;;;5115656;28;20089;-64
2023/05/25 04:29:00;;;;;;;10.15;5.20;;;;;;;;;;5115673;28;20039;-66
2023/05/25 04:31:26;;;;;;;13.75;4.80;;;;;;;;;;5115496;28;20384;-65
2023/05/25 04:33:52;;;;;;;13.63;5.30;;;;;;;;;;5114612;28;20039;-65
2023/05/25 04:36:17;;;;;;;11.43;5.22;;;;;;;;;;5095297;28;20036;-66
2023/05/25 04:38:46;;;;;;;15.20;5.03;;;;;;;;;;5100584;28;20030;-64
2023/05/25 04:41:12;;;;;;;12.60;5.38;;;;;;;;;;5110598;28;20093;-65
2023/05/25 04:43:38;;;;;;;10.18;5.28;;;;;;;;;;5095193;28;20020;-66
2023/05/25 04:46:04;;;;;;;10.57;4.60;;;;;;;;;;5094731;28;20040;-65
2023/05/25 04:48:33;;;;;;;7.82;4.40;;;;;;;;;;5095141;28;20453;-65
2023/05/25 04:51:01;;;;;;;14.32;5.75;;;;;;;;;;5095049;28;20074;-64
2023/05/25 04:53:28;;;;;;;13.50;4.70;;;;;;;;;;5095095;28;20103;-65
2023/05/25 04:55:54;;;;;;;12.10;4.68;;;;;;;;;;5096091;28;20028;-64
2023/05/25 04:58:20;;;;;;;7.57;3.80;;;;;;;;;;5115172;28;20032;-65
2023/05/25 05:00:46;;;;;;;10.98;4.30;;;;;;;;;;5114464;28;20023;-66
2023/05/25 05:03:12;;;;;;;12.88;4.88;;;;;;;;;;5105502;28;20553;-64
2023/05/25 05:05:37;;;;;;;9.02;3.92;;;;;;;;;;5093444;28;20070;-64
2023/05/25 05:08:03;;;;;;;10.50;4.05;;;;;;;;;;5094686;28;20027;-64
2023/05/25 05:10:28;;;;;;;11.60;4.10;;;;;;;;;;5094701;28;20055;-66
2023/05/25 05:12:54;;;;;;;9.07;3.75;;;;;;;;;;5094369;28;20032;-65
2023/05/25 05:15:19;;;;;;;11.80;3.78;;;;;;;;;;5093848;28;20518;-65
2023/05/25 05:17:45;;;;;;;9.70;3.60;;;;;;;;;;5094441;28;20040;-64
2023/05/25 05:20:11;;;;;;;6.30;3.42;;;;;;;;;;5093504;28;20032;-65
2023/05/25 05:22:37;;;;;;;13.45;3.78;;;;;;;;;;5094367;28;20024;-66
2023/05/25 05:25:03;;;;;;;22.95;4.78;;;;;;;;;;5094427;28;20480;-65
2023/05/25 05:27:29;;;;;;;15.70;4.75;;;;;;;;;;5094159;28;20036;-65
2023/05/25 05:29:54;;;;;;;14.93;4.38;;;;;;;;;;5093726;28;20032;-64
2023/05/25 05:32:20;;;;;;;19.05;4.05;;;;;;;;;;5099015;28;20023;-67
2023/05/25 05:34:45;;;;;;;11.10;4.18;;;;;;;;;;5091438;28;20349;-69
2023/05/25 05:37:11;;;;;;;24.08;4.68;;;;;;;;;;5090449;28;20028;-67
2023/05/25 05:39:36;;;;;;;15.13;3.80;;;;;;;;;;5106697;28;20119;-69
2023/05/25 05:42:02;;;;;;;13.25;3.85;;;;;;;;;;5114205;28;20024;-67
2023/05/25 05:44:27;;;;;;;16.15;4.20;;;;;;;;;;5097386;28;20035;-71
2023/05/25 05:46:58;;;;;;;12.68;3.17;;;;;;;;;;5093479;28;20469;-71
2023/05/25 05:49:25;;;;;;;11.40;4.30;;;;;;;;;;5093415;28;20044;-70
2023/05/25 05:51:51;;;;;;;15.60;3.25;;;;;;;;;;5093202;28;20111;-70
2023/05/25 05:54:16;;;;;;;25.80;4.68;;;;;;;;;;5093447;28;20115;-68
2023/05/25 05:56:41;;;;;;;8.65;3.55;;;;;;;;;;5095794;28;20452;-70
2023/05/25 05:59:07;;;;;;;5.57;2.83;;;;;;;;;;5093491;28;20032;-64
2023/05/25 06:01:32;;;;;;;14.23;3.70;;;;;;;;;;5093509;28;20020;-68
2023/05/25 06:03:58;;;;;;;13.10;3.70;;;;;;;;;;5093572;28;20024;-64
2023/05/25 06:06:24;;;;;;;11.73;3.50;;;;;;;;;;5095020;28;20073;-65
2023/05/25 06:08:50;;;;;;;7.30;3.28;;;;;;;;;;5113798;28;20023;-63
2023/05/25 06:11:15;;;;;;;14.25;3.70;;;;;;;;;;5113554;28;20028;-65
2023/05/25 06:13:41;;;;;;;9.07;3.13;;;;;;;;;;5113568;28;20418;-68
2023/05/25 06:16:06;;;;;;;11.90;3.42;;;;;;;;;;5113644;28;20020;-69
2023/05/25 06:18:31;;;;;;;9.60;3.70;;;;;;;;;;5113486;28;20058;-69
2023/05/25 06:20:57;;;;;;;12.90;3.92;;;;;;;;;;5113688;28;20034;-70
2023/05/25 06:23:22;;;;;;;11.38;3.38;;;;;;;;;;5113532;28;20393;-70
2023/05/25 06:25:51;;;;;;;11.73;3.40;;;;;;;;;;5113365;28;20779;-71
2023/05/25 06:28:16;;;;;;;11.98;3.95;;;;;;;;;;5110592;28;20028;-66
2023/05/25 06:30:41;;;;;;;18.25;4.30;;;;;;;;;;5093074;28;20133;-70
2023/05/25 06:33:07;;;;;;;9.32;3.35;;;;;;;;;;5092729;28;20500;-66
2023/05/25 06:35:32;;;;;;;11.43;3.60;;;;;;;;;;5092951;28;20024;-69
2023/05/25 06:37:58;;;;;;;9.52;3.65;;;;;;;;;;5092592;28;20062;-72
2023/05/25 06:40:23;;;;;;;5.97;2.72;;;;;;;;;;5112511;28;20057;-73
2023/05/25 06:42:49;;;;;;;8.88;2.88;;;;;;;;;;5100079;28;20028;-71
2023/05/25 06:45:15;;;;;;;11.57;3.42;;;;;;;;;;5092653;28;20044;-71
2023/05/25 06:47:40;;;;;;;9.32;3.72;;;;;;;;;;5092587;28;20036;-72
2023/05/25 06:50:07;;;;;;;9.07;3.47;;;;;;;;;;5092926;28;20031;-71
2023/05/25 06:52:32;;;;;;;9.27;3.35;;;;;;;;;;5092551;28;20122;-72
2023/05/25 06:54:57;;;;;;;10.63;3.22;;;;;;;;;;5092627;28;20436;-71
2023/05/25 06:57:23;;;;;;;9.52;3.13;;;;;;;;;;5092178;28;20024;-66
2023/05/25 06:59:49;;;;;;;7.63;3.35;;;;;;;;;;5092705;28;20039;-68
2023/05/25 07:02:14;;;;;;;10.55;3.75;;;;;;;;;;5092388;28;20480;-71
2023/05/25 07:04:40;;;;;;;9.00;3.50;;;;;;;;;;5092832;28;20508;-70
2023/05/25 07:07:05;;;;;;;8.05;3.45;;;;;;;;;;5096590;28;20027;-70
2023/05/25 07:09:31;;;;;;;7.63;3.30;;;;;;;;;;5112838;28;20488;-71
2023/05/25 07:11:56;;;;;;;6.38;2.97;;;;;;;;;;5112472;28;20036;-72
2023/05/25 07:14:22;;;;;;;14.15;3.97;;;;;;;;;;5113585;28;20027;-71
2023/05/25 07:16:47;;;;;;;8.52;3.75;;;;;;;;;;5112662;28;20047;-70
2023/05/25 07:19:13;;;;;;;10.35;3.35;;;;;;;;;;5112736;28;20525;-70
2023/05/25 07:21:38;;;;;;;10.43;3.05;;;;;;;;;;5112682;28;20023;-70
2023/05/25 07:24:04;;;;;;;11.48;3.45;;;;;;;;;;5112634;28;20385;-70
2023/05/25 07:26:30;;;;;;;11.13;4.10;;;;;;;;;;5112345;28;20473;-70
2023/05/25 07:28:56;;;;;;;9.23;3.38;;;;;;;;;;5112074;28;20079;-70
2023/05/25 07:31:22;;;;;;;8.65;3.33;;;;;;;;;;5112606;28;20370;-69
2023/05/25 07:33:48;;;;;;;10.00;3.33;;;;;;;;;;5111682;28;20027;-71
2023/05/25 07:36:14;;;;;;;8.25;3.28;;;;;;;;;;5092131;28;20106;-68
2023/05/25 07:38:39;;;;;;;11.32;3.10;;;;;;;;;;5096907;28;20036;-69
2023/05/25 07:41:05;;;;;;;8.27;2.97;;;;;;;;;;5112350;28;20472;-71
2023/05/25 07:43:30;;;;;;;7.30;3.20;;;;;;;;;;5098729;28;20032;-69
2023/05/25 07:45:56;;;;;;;9.43;3.25;;;;;;;;;;5096071;28;20046;-69
2023/05/25 07:48:21;;;;;;;9.32;3.05;;;;;;;;;;5095982;28;20111;-69
2023/05/25 07:50:47;;;;;;;7.63;3.05;;;;;;;;;;5096243;28;20551;-69
2023/05/25 07:53:12;;;;;;;8.88;3.17;;;;;;;;;;5096293;28;20024;-70
2023/05/25 07:55:37;;;;;;;10.50;3.42;;;;;;;;;;5095934;28;20166;-70
2023/05/25 07:58:06;;;;;;;8.50;3.35;;;;;;;;;;5096385;28;20047;-70
2023/05/25 08:00:32;;;;;;;11.00;3.28;;;;;;;;;;5096157;28;20024;-67
2023/05/25 08:02:57;;;;;;;8.48;3.08;;;;;;;;;;5094646;28;20027;-68
2023/05/25 08:05:23;;;;;;;8.68;3.35;;;;;;;;;;5095974;28;20016;-69
2023/05/25 08:07:48;;;;;;;10.52;3.65;;;;;;;;;;5102707;28;20066;-70
2023/05/25 08:10:14;;;;;;;11.38;3.75;;;;;;;;;;5116106;28;20101;-67
2023/05/25 08:12:39;;;;;;;11.55;3.40;;;;;;;;;;5115731;28;20504;-69
2023/05/25 08:15:05;;;;;;;10.63;3.50;;;;;;;;;;5116196;28;20483;-66
2023/05/25 08:17:30;;;;;;;12.80;3.53;;;;;;;;;;5115992;28;20027;-69
2023/05/25 08:19:56;;;;;;;10.98;3.33;;;;;;;;;;5116253;28;20033;-73
2023/05/25 08:22:22;;;;;;;9.40;3.13;;;;;;;;;;5115800;28;20081;-70
2023/05/25 08:24:47;;;;;;;9.05;3.22;;;;;;;;;;5115629;28;20038;-70
2023/05/25 08:27:13;;;;;;;9.98;3.40;;;;;;;;;;5115436;28;20023;-72
2023/05/25 08:29:38;;;;;;;20.65;3.83;;;;;;;;;;5115747;28;20027;-68
2023/05/25 08:32:04;;;;;;;10.73;3.60;;;;;;;;;;5116018;28;20020;-63
2023/05/25 08:34:29;;;;;;;11.75;3.58;;;;;;;;;;5109117;28;20436;-69
2023/05/25 08:36:56;;;;;;;11.40;3.22;;;;;;;;;;5092417;28;20020;-69
2023/05/25 08:39:22;;;;;;;13.75;3.67;;;;;;;;;;5096839;28;20119;-67
2023/05/25 08:41:49;;;;;;;10.43;3.50;;;;;;;;;;5085461;28;20111;-70
2023/05/25 08:44:14;;;;;;;7.90;3.08;;;;;;;;;;5111965;28;20038;-65
2023/05/25 08:46:40;;;;;;;9.70;3.85;;;;;;;;;;5115361;28;20092;-69
2023/05/25 08:49:13;;;;;;;13.82;4.57;;;;;;;;;;5114926;28;20054;-67
2023/05/25 08:51:53;;;;;;;11.05;4.03;;;;;;;;;;5115539;28;20020;-70
2023/05/25 08:54:30;;;;;;;13.60;3.67;;;;;;;;;;5111392;27;20028;-65
2023/05/25 08:57:04;;;;;;;12.30;4.20;;;;;;;;;;5094948;28;20261;-68
2023/05/25 08:59:39;;;;;;;9.25;3.65;;;;;;;;;;5095113;28;20036;-69
2023/05/25 09:02:19;;;;;;;9.27;3.97;;;;;;;;;;5095191;28;20020;-67
2023/05/25 09:04:45;;;;;;;9.55;3.88;;;;;;;;;;5094730;28;20460;-68
2023/05/25 09:07:11;;;;;;;20.42;4.82;;;;;;;;;;5094192;28;20028;-67
2023/05/25 09:09:37;;;;;;;12.05;3.92;;;;;;;;;;5094476;28;20477;-67
2023/05/25 09:12:05;;;;;;;10.90;4.20;;;;;;;;;;5094761;28;20085;-63
2023/05/25 09:14:30;;;;;;;10.88;4.28;;;;;;;;;;5095103;28;20473;-67
2023/05/25 09:16:57;;;;;;;8.07;3.28;;;;;;;;;;5094582;28;20035;-70
2023/05/25 09:19:22;;;;;;;11.57;4.45;;;;;;;;;;5094522;28;20107;-70
2023/05/25 09:21:48;;;;;;;14.48;4.15;;;;;;;;;;5094597;28;20149;-70
2023/05/25 09:24:15;;;;;;;15.90;4.13;;;;;;;;;;5094524;28;20085;-71
2023/05/25 09:26:43;;;;;;;11.07;4.18;;;;;;;;;;5094039;28;20024;-72
2023/05/25 09:29:08;;;;;;;10.75;3.70;;;;;;;;;;5094289;28;20082;-72
2023/05/25 09:31:35;;;;;;;8.07;3.70;;;;;;;;;;5094504;28;20028;-70
2023/05/25 09:34:00;;;;;;;14.88;4.18;;;;;;;;;;5104141;28;20041;-72
2023/05/25 09:36:26;;;;;;;9.20;3.80;;;;;;;;;;5093999;28;20412;-71
2023/05/25 09:38:53;;;;;;;9.02;3.80;;;;;;;;;;5093940;28;20032;-71
2023/05/25 09:41:18;;;;;;;10.60;3.53;;;;;;;;;;5094111;28;20047;-69
2023/05/25 09:43:44;;;;;;;7.70;3.45;;;;;;;;;;5094010;28;20028;-70
2023/05/25 09:46:10;;;;;;;11.13;3.53;;;;;;;;;;5093949;28;20044;-71
2023/05/25 09:48:36;;;;;;;8.20;3.25;;;;;;;;;;5093641;28;20036;-64
2023/05/25 09:51:02;;;;;;;12.77;3.90;;;;;;;;;;5093475;28;20020;-74
2023/05/25 09:53:28;;;;;;;5.20;2.70;;;;;;;;;;5094061;28;20027;-73
2023/05/25 09:55:55;;;;;;;9.27;3.20;;;;;;;;;;5094424;28;20035;-72
2023/05/25 09:58:26;;;;;;;7.28;3.22;;;;;;;;;;5093825;28;20104;-67
2023/05/25 10:00:53;;;;;;;11.18;3.88;;;;;;;;;;5093638;28;20499;-66
2023/05/25 10:03:20;;;;;;;13.45;4.40;;;;;;;;;;5097728;28;20039;-66
2023/05/25 10:05:46;;;;;;;10.18;4.22;;;;;;;;;;5113462;28;20027;-64
2023/05/25 10:08:12;;;;;;;12.27;4.22;;;;;;;;;;5112856;28;20019;-64
2023/05/25 10:10:40;;;;;;;11.15;4.00;;;;;;;;;;5113705;28;20031;-66
2023/05/25 10:13:08;;;;;;;10.55;4.10;;;;;;;;;;5113547;28;20117;-65
2023/05/25 10:15:36;;;;;;;12.45;4.20;;;;;;;;;;5113940;28;20084;-64
2023/05/25 10:18:02;;;;;;;10.27;3.22;;;;;;;;;;5113505;28;20038;-64
2023/05/25 10:20:30;;;;;;;10.85;3.55;;;;;;;;;;5113464;28;20051;-64
2023/05/25 10:23:11;;;;;;;7.47;3.70;;;;;;;;;;5113462;28;20473;-64
2023/05/25 10:25:40;;;;;;;6.88;3.60;;;;;;;;;;5113662;28;20422;-66
2023/05/25 10:28:23;;;;;;;9.50;4.40;;;;;;;;;;5113189;28;20107;-65
2023/05/25 10:30:51;;;;;;;9.85;4.60;;;;;;;;;;5113464;28;20028;-67
2023/05/25 10:33:17;;;;;;;11.85;4.38;;;;;;;;;;5113267;28;20473;-64
2023/05/25 10:35:43;;;;;;;12.93;4.15;;;;;;;;;;5096725;28;20017;-72
2023/05/25 10:38:09;;;;;;;10.23;3.85;;;;;;;;;;5092744;28;20020;-68
2023/05/25 10:40:37;;;;;;;8.52;4.47;;;;;;;;;;5093008;28;20046;-64
2023/05/25 10:43:03;;;;;;;9.82;4.00;;;;;;;;;;5092989;28;20397;-66
2023/05/25 10:45:29;;;;;;;9.90;4.18;;;;;;;;;;5071094;28;20041;-69
2023/05/25 10:47:55;;;;;;;12.13;3.60;;;;;;;;;;5072295;28;20034;-64
2023/05/25 10:50:26;;;;;;;7.97;3.28;;;;;;;;;;5091326;28;20548;-65
2023/05/25 10:53:02;;;;;;;13.93;3.58;;;;;;;;;;5092747;28;20016;-64
2023/05/25 10:55:31;;;;;;;8.35;3.50;;;;;;;;;;5092852;28;20028;-65
2023/05/25 10:58:08;;;;;;;6.88;3.42;;;;;;;;;;5092668;28;20034;-64
2023/05/25 11:00:33;;;;;;;8.35;3.92;;;;;;;;;;5112902;28;20492;-64
2023/05/25 11:02:59;;;;;;;10.32;3.75;;;;;;;;;;5104692;28;20016;-66
2023/05/25 11:05:30;;;;;;;11.68;3.17;;;;;;;;;;5092618;28;20030;-64
2023/05/25 11:07:57;;;;;;;12.20;3.38;;;;;;;;;;5091884;28;20020;-64
2023/05/25 11:10:37;;;;;;;9.07;3.53;;;;;;;;;;5092425;28;20077;-64
2023/05/25 11:13:21;;;;;;;6.63;2.60;;;;;;;;;;5092194;28;20469;-64
2023/05/25 11:16:06;;;;;;;9.32;2.90;;;;;;;;;;5090448;28;20024;-65
2023/05/25 11:18:42;;;;;;;12.25;3.40;;;;;;;;;;5087598;28;20110;-67
2023/05/25 11:21:44;;;;;;;7.43;2.83;;;;;;;;;;5092151;28;20028;-70
2023/05/25 11:24:13;;;;;;;7.43;3.30;;;;;;;;;;5089516;28;20028;-68
2023/05/25 11:26:53;;;;;;;6.95;2.72;;;;;;;;;;5092729;28;20020;-69
2023/05/25 11:29:19;;;;;;;10.73;2.95;;;;;;;;;;5099928;28;20043;-66
2023/05/25 11:31:51;;;;;;;7.75;3.10;;;;;;;;;;5112445;28;20028;-67
2023/05/25 11:34:20;;;;;;;8.98;2.92;;;;;;;;;;5107812;28;20028;-69
2023/05/25 11:36:46;;;;;;;7.97;2.60;;;;;;;;;;5092398;28;20052;-70
2023/05/25 11:39:11;;;;;;;9.55;3.03;;;;;;;;;;5088021;28;20066;-71
2023/05/25 11:41:39;;;;;;;10.85;3.42;;;;;;;;;;5092336;28;20031;-70
2023/05/25 11:44:05;;;;;;;6.65;2.83;;;;;;;;;;5091832;28;20028;-71
2023/05/25 11:46:32;;;;;;;7.18;3.00;;;;;;;;;;5091756;28;20101;-68
2023/05/25 11:48:58;;;;;;;13.80;3.30;;;;;;;;;;5091884;28;20093;-69
2023/05/25 11:51:25;;;;;;;7.20;3.25;;;;;;;;;;5092048;28;20031;-70
2023/05/25 11:53:51;;;;;;;8.27;3.20;;;;;;;;;;5092088;28;20055;-68
2023/05/25 11:56:18;;;;;;;5.70;2.35;;;;;;;;;;5091246;28;20409;-64
2023/05/25 11:58:44;;;;;;;8.45;2.55;;;;;;;;;;5077652;28;20501;-71
2023/05/25 12:01:21;;;;;;;7.53;2.70;;;;;;;;;;5091422;28;20028;-70
2023/05/25 12:03:48;;;;;;;6.95;2.70;;;;;;;;;;5091887;28;20355;-70
2023/05/25 12:06:32;;;;;;;8.10;2.92;;;;;;;;;;5090500;28;20024;-70
2023/05/25 12:09:00;;;;;;;8.60;3.05;;;;;;;;;;5091889;28;20148;-70
2023/05/25 12:11:31;;;;;;;8.05;3.20;;;;;;;;;;5103642;28;20081;-71
2023/05/25 12:14:05;;;;;;;6.97;2.67;;;;;;;;;;5113318;28;20032;-69
2023/05/25 12:16:35;;;;;;;9.18;3.30;;;;;;;;;;5111360;28;20032;-70
2023/05/25 12:19:05;;;;;;;9.18;3.08;;;;;;;;;;5112898;28;20263;-71
2023/05/25 12:21:31;;;;;;;5.83;2.63;;;;;;;;;;5113073;28;20047;-70
2023/05/25 12:23:57;;;;;;;9.18;3.50;;;;;;;;;;5112365;28;20032;-71
2023/05/25 12:26:22;;;;;;;7.75;3.20;;;;;;;;;;5112981;28;20106;-71
2023/05/25 12:29:08;;;;;;;7.18;2.80;;;;;;;;;;5112012;28;20107;-70
2023/05/25 12:31:37;;;;;;;9.90;2.80;;;;;;;;;;5115554;28;20423;-71
2023/05/25 12:34:11;;;;;;;12.98;3.55;;;;;;;;;;5107354;28;20024;-69
2023/05/25 12:36:37;;;;;;;9.32;2.97;;;;;;;;;;5095073;28;20085;-64
2023/05/25 12:39:04;;;;;;;9.00;2.60;;;;;;;;;;5103156;28;20036;-68
2023/05/25 12:41:29;;;;;;;8.88;3.08;;;;;;;;;;5095288;28;20028;-67
2023/05/25 12:43:56;;;;;;;9.65;2.78;;;;;;;;;;5094862;28;20024;-66
2023/05/25 12:46:25;;;;;;;8.40;2.50;;;;;;;;;;5093331;28;20036;-68
2023/05/25 12:48:50;;;;;;;6.97;2.72;;;;;;;;;;5098651;28;20096;-70
2023/05/25 12:51:16;;;;;;;10.85;3.00;;;;;;;;;;5104219;28;20465;-66
2023/05/25 12:53:51;;;;;;;9.20;3.10;;;;;;;;;;5094425;28;20103;-67
2023/05/25 12:56:16;;;;;;;7.97;2.97;;;;;;;;;;5094857;28;20413;-70
2023/05/25 12:58:42;;;;;;;10.90;3.60;;;;;;;;;;5094140;28;20016;-71
2023/05/25 13:01:08;;;;;;;10.40;3.08;;;;;;;;;;5094947;28;20420;-70
2023/05/25 13:03:33;;;;;;;10.55;2.70;;;;;;;;;;5106062;28;20040;-71
2023/05/25 13:06:01;;;;;;;7.00;2.45;;;;;;;;;;5094839;28;20075;-71
2023/05/25 13:08:27;;;;;;;7.22;2.75;;;;;;;;;;5093293;28;20024;-71
2023/05/25 13:10:52;;;;;;;8.30;2.40;;;;;;;;;;5094770;28;20055;-70
2023/05/25 13:13:18;;;;;;;6.53;2.35;;;;;;;;;;5094150;28;20024;-69
2023/05/25 13:15:43;;;;;;;6.88;3.00;;;;;;;;;;5094642;28;20031;-70
2023/05/25 13:18:09;;;;;;;7.47;2.63;;;;;;;;;;5094450;28;20028;-70
2023/05/25 13:20:35;;;;;;;8.77;3.50;;;;;;;;;;5105643;28;20039;-69
2023/05/25 13:23:02;;;;;;;8.50;3.15;;;;;;;;;;5092976;28;20370;-68
2023/05/25 13:25:28;;;;;;;10.70;3.78;;;;;;;;;;5093957;28;20442;-69
2023/05/25 13:27:56;;;;;;;7.78;3.33;;;;;;;;;;5094002;28;20028;-70
2023/05/25 13:30:22;;;;;;;9.77;3.00;;;;;;;;;;5094250;28;20028;-70
2023/05/25 13:32:48;;;;;;;10.70;3.15;;;;;;;;;;5094267;28;20020;-66
2023/05/25 13:35:57;;;;;;;9.82;3.42;;;;;;;;;;5094056;28;20027;-72
2023/05/25 13:38:05;;;;;;;17.08;3.55;;;;;;;;;;5091992;28;20051;-73
2023/05/25 13:40:30;;;;;;;13.85;3.33;;;;;;;;;;5101810;28;20032;-73
2023/05/25 13:42:56;;;;;;;12.77;3.95;;;;;;;;;;5092840;28;20482;-71
2023/05/25 13:45:21;;;;;;;7.97;2.67;;;;;;;;;;5093961;28;20385;-72
2023/05/25 13:47:47;;;;;;;8.77;3.30;;;;;;;;;;5093839;28;20062;-73
2023/05/25 13:50:20;;;;;;;7.10;3.40;;;;;;;;;;5094082;28;20028;-70
2023/05/25 13:52:45;;;;;;;6.20;2.75;;;;;;;;;;5093364;28;20453;-72
2023/05/25 13:55:11;;;;;;;8.27;2.80;;;;;;;;;;5103861;28;20058;-72
2023/05/25 13:57:36;;;;;;;11.93;3.13;;;;;;;;;;5107012;28;20453;-70
2023/05/25 14:00:03;;;;;;;9.27;2.80;;;;;;;;;;5113934;28;20050;-72
2023/05/25 14:02:30;;;;;;;14.82;3.33;;;;;;;;;;5113992;28;20131;-68
2023/05/25 14:04:56;;;;;;;10.68;3.25;;;;;;;;;;5114211;28;20434;-71
2023/05/25 14:07:22;;;;;;;9.13;3.08;;;;;;;;;;5114017;28;20059;-72
2023/05/25 14:09:48;;;;;;;10.95;2.92;;;;;;;;;;5113930;28;20041;-71
2023/05/25 14:12:13;;;;;;;8.32;3.30;;;;;;;;;;5113701;28;20099;-71
2023/05/25 14:14:38;;;;;;;9.80;3.05;;;;;;;;;;5113734;28;20028;-68
2023/05/25 14:17:04;;;;;;;11.02;3.42;;;;;;;;;;5110509;28;20091;-71
2023/05/25 14:19:29;;;;;;;12.45;3.00;;;;;;;;;;5093237;28;20080;-71
2023/05/25 14:21:55;;;;;;;10.88;3.22;;;;;;;;;;5093040;28;20034;-71
2023/05/25 14:24:20;;;;;;;10.73;3.45;;;;;;;;;;5093004;28;20039;-71
2023/05/25 14:26:46;;;;;;;14.07;3.20;;;;;;;;;;5092734;28;20032;-72
2023/05/25 14:29:11;;;;;;;10.20;3.00;;;;;;;;;;5093078;28;20081;-71
2023/05/25 14:31:36;;;;;;;7.68;3.00;;;;;;;;;;5093242;28;20363;-73
2023/05/25 14:34:02;;;;;;;8.00;2.83;;;;;;;;;;5092988;28;20168;-64
2023/05/25 14:36:27;;;;;;;15.65;3.85;;;;;;;;;;5092902;28;20366;-74